Dundrum, United Kingdom
Current Conditions -  °F | °C
As of 10:20 AM on Thursday 23 Oct 2014 (Local Time) from EGAC Reporting Station
Rain Showers Rain Showers  
Wind Chill: 57°   Ceiling: 1700
Heat Index: 57°   Visibility: 6mi
Dew Point: 52°   Wind: 18mph
Humidity: 82%   Direction: 210°SSW
Pressure: 29.83"   Gusts: NA
Location:  54.26°N, 5.84°W
Report Text: EGAC 230920Z 21016KT 9999 VCSH FEW006 SCT012 BKN017 14/11 Q1010
Loading
Personal Weather Stations






























Interactive Weather Map
Tropical Storm Tracking
New forecast layout! Learn more

10-Day Weather Forecast

Advertisements
Track Severe Weather on mobile